createdAt,value
2022-09-23T00:02:03.126Z,12.66
2022-09-23T00:04:32.451Z,12.68
2022-09-23T00:07:00.239Z,12.67
2022-09-23T00:09:28.056Z,12.67
2022-09-23T00:11:55.946Z,12.66
2022-09-23T00:14:24.528Z,12.64
2022-09-23T00:16:52.409Z,12.63
2022-09-23T00:19:20.275Z,12.64
2022-09-23T00:21:49.568Z,12.63
2022-09-23T00:24:17.420Z,12.59
2022-09-23T00:26:45.357Z,12.59
2022-09-23T00:29:13.167Z,12.54
2022-09-23T00:31:41.078Z,12.52
2022-09-23T00:34:12.007Z,12.43
2022-09-23T00:36:40.442Z,12.39
2022-09-23T00:39:10.415Z,12.40
2022-09-23T00:41:38.400Z,12.41
2022-09-23T00:44:39.530Z,12.42
2022-09-23T00:47:18.190Z,12.36
2022-09-23T00:49:48.159Z,12.28
2022-09-23T00:52:19.610Z,12.31
2022-09-23T00:54:49.299Z,12.27
2022-09-23T00:57:20.071Z,12.29
2022-09-23T00:59:51.024Z,12.30
2022-09-23T01:02:21.139Z,12.25
2022-09-23T01:04:50.963Z,12.27
2022-09-23T01:07:19.139Z,12.28
2022-09-23T01:09:50.032Z,12.20
2022-09-23T01:12:32.593Z,12.24
2022-09-23T01:15:10.393Z,12.21
2022-09-23T01:17:43.674Z,12.22
2022-09-23T01:20:46.460Z,12.19
2022-09-23T01:23:30.360Z,12.12
2022-09-23T01:26:16.310Z,12.06
2022-09-23T01:29:13.303Z,12.08
2022-09-23T01:31:47.553Z,12.06
2022-09-23T01:34:24.217Z,12.10
2022-09-23T01:36:58.975Z,12.08
2022-09-23T01:39:36.324Z,12.09
2022-09-23T01:42:07.556Z,12.03
2022-09-23T01:44:40.555Z,12.04
2022-09-23T01:47:14.349Z,12.10
2022-09-23T01:49:50.388Z,12.09
2022-09-23T01:52:26.294Z,12.08
2022-09-23T01:55:02.188Z,12.06
2022-09-23T01:57:34.551Z,12.09
2022-09-23T02:00:07.637Z,12.02
2022-09-23T02:02:49.481Z,12.00
2022-09-23T02:05:23.387Z,12.00
2022-09-23T02:07:55.227Z,12.03
2022-09-23T02:10:26.409Z,12.13
2022-09-23T02:12:57.704Z,12.14
2022-09-23T02:15:30.591Z,12.17
2022-09-23T02:18:04.891Z,12.15
2022-09-23T02:20:39.647Z,12.15
2022-09-23T02:23:12.213Z,12.14
2022-09-23T02:25:47.091Z,12.16
2022-09-23T02:28:19.414Z,12.21
2022-09-23T02:30:56.236Z,12.23
2022-09-23T02:33:34.663Z,12.20
2022-09-23T02:36:11.447Z,12.21
2022-09-23T02:38:46.138Z,12.23
2022-09-23T02:41:19.131Z,12.19
2022-09-23T02:43:50.929Z,12.10
2022-09-23T02:46:19.792Z,12.08
2022-09-23T02:48:54.264Z,12.07
2022-09-23T02:51:23.745Z,12.10
2022-09-23T02:53:52.088Z,12.06
2022-09-23T02:56:21.969Z,11.99
2022-09-23T02:58:51.916Z,12.00
2022-09-23T03:01:32.031Z,11.94
2022-09-23T03:04:12.201Z,11.94
2022-09-23T03:06:52.735Z,11.92
2022-09-23T03:09:26.280Z,11.82
2022-09-23T03:12:01.235Z,11.84
2022-09-23T03:14:40.419Z,11.90
2022-09-23T03:17:16.137Z,11.82
2022-09-23T03:19:52.877Z,11.81
2022-09-23T03:22:25.987Z,11.81
2022-09-23T03:24:56.999Z,11.85
2022-09-23T03:27:28.783Z,11.92
2022-09-23T03:29:58.227Z,11.98
2022-09-23T03:32:29.408Z,12.00
2022-09-23T03:35:02.580Z,12.04
2022-09-23T03:37:35.060Z,12.12
2022-09-23T03:40:09.849Z,12.16
2022-09-23T03:42:40.198Z,12.22
2022-09-23T03:45:13.029Z,12.23
2022-09-23T03:47:42.440Z,12.26
2022-09-23T03:50:13.371Z,12.29
2022-09-23T03:52:41.431Z,12.37
2022-09-23T03:55:10.285Z,12.34
2022-09-23T03:57:38.886Z,12.33
2022-09-23T04:00:08.326Z,12.35
2022-09-23T04:02:36.720Z,12.35
2022-09-23T04:05:05.469Z,12.37
2022-09-23T04:07:34.690Z,12.34
2022-09-23T04:10:02.534Z,12.33
2022-09-23T04:12:30.368Z,12.30
2022-09-23T04:14:58.473Z,12.30
2022-09-23T04:17:29.585Z,12.21
2022-09-23T04:19:57.532Z,12.17
2022-09-23T04:22:25.324Z,12.22
2022-09-23T04:24:54.884Z,12.22
2022-09-23T04:27:22.788Z,12.24
2022-09-23T04:29:50.569Z,12.28
2022-09-23T04:32:18.524Z,12.35
2022-09-23T04:34:46.436Z,12.37
2022-09-23T04:37:14.367Z,12.38
2022-09-23T04:39:43.332Z,12.45
2022-09-23T04:42:12.503Z,12.38
2022-09-23T04:44:40.755Z,12.37
2022-09-23T04:47:08.781Z,12.30
2022-09-23T04:49:36.664Z,12.32
2022-09-23T04:52:05.409Z,12.26
2022-09-23T04:54:33.629Z,12.30
2022-09-23T04:57:01.724Z,12.36
2022-09-23T04:59:31.026Z,12.38
2022-09-23T05:01:58.904Z,12.32
2022-09-23T05:04:26.892Z,12.24
2022-09-23T05:06:55.944Z,12.33
2022-09-23T05:09:25.386Z,12.35
2022-09-23T05:11:53.204Z,12.33
2022-09-23T05:14:21.398Z,12.35
2022-09-23T05:16:50.713Z,12.37
2022-09-23T05:19:18.540Z,12.36
2022-09-23T05:21:46.376Z,12.43
2022-09-23T05:24:15.065Z,12.45
2022-09-23T05:26:43.220Z,12.49
2022-09-23T05:29:11.348Z,12.56
2022-09-23T05:31:39.318Z,12.58
2022-09-23T05:34:08.771Z,12.61
2022-09-23T05:36:39.194Z,12.54
2022-09-23T05:39:08.856Z,12.61
2022-09-23T05:41:37.788Z,12.68
2022-09-23T05:44:05.769Z,12.71
2022-09-23T05:46:34.225Z,12.78
2022-09-23T05:49:03.614Z,12.82
2022-09-23T05:51:34.945Z,12.84
2022-09-23T05:54:04.293Z,12.89
2022-09-23T05:56:34.210Z,12.97
2022-09-23T05:59:03.502Z,12.93
2022-09-23T06:01:34.104Z,13.04
2022-09-23T06:04:04.603Z,13.05
2022-09-23T06:06:35.432Z,13.11
2022-09-23T06:09:03.586Z,13.08
2022-09-23T06:11:32.880Z,13.07
2022-09-23T06:14:02.140Z,13.09
2022-09-23T06:16:32.186Z,13.13
2022-09-23T06:19:05.966Z,13.18
2022-09-23T06:21:38.046Z,13.16
2022-09-23T06:24:07.076Z,13.18
2022-09-23T06:26:35.663Z,13.22
2022-09-23T06:29:04.280Z,13.21
2022-09-23T06:31:33.198Z,13.25
2022-09-23T06:34:12.200Z,13.31
2022-09-23T06:36:45.382Z,13.31
2022-09-23T06:39:14.957Z,13.37
2022-09-23T06:41:42.898Z,13.39
2022-09-23T06:44:11.013Z,13.34
2022-09-23T06:46:38.989Z,13.43
2022-09-23T06:49:07.203Z,13.43
2022-09-23T06:51:35.139Z,13.41
2022-09-23T06:54:04.758Z,13.41
2022-09-23T06:56:38.505Z,13.38
2022-09-23T06:59:07.642Z,13.45
2022-09-23T07:01:35.888Z,13.41
2022-09-23T07:04:03.910Z,13.37
2022-09-23T07:06:31.790Z,13.44
2022-09-23T07:09:01.109Z,13.49
2022-09-23T07:11:30.825Z,13.52
2022-09-23T07:13:58.899Z,13.55
2022-09-23T07:16:27.228Z,13.61
2022-09-23T07:18:55.996Z,13.65
2022-09-23T07:21:23.898Z,13.75
2022-09-23T07:23:52.135Z,13.80
2022-09-23T07:26:21.209Z,13.97
2022-09-23T07:28:54.856Z,14.10
2022-09-23T07:31:36.134Z,14.22
2022-09-23T07:34:08.180Z,14.33
2022-09-23T07:36:37.424Z,14.46
2022-09-23T07:39:06.109Z,14.65
2022-09-23T07:41:35.009Z,14.69
2022-09-23T07:44:06.206Z,14.86
2022-09-23T07:46:36.566Z,14.98
2022-09-23T07:49:05.291Z,15.36
2022-09-23T07:51:36.590Z,16.62
2022-09-23T07:54:08.034Z,18.35
2022-09-23T07:56:36.924Z,19.42
2022-09-23T07:59:08.888Z,20.31
2022-09-23T08:01:38.817Z,20.34
2022-09-23T08:04:09.315Z,20.30
2022-09-23T08:06:40.910Z,20.18
2022-09-23T08:09:09.456Z,19.40
2022-09-23T08:11:41.734Z,18.95
2022-09-23T08:14:11.724Z,18.93
2022-09-23T08:16:39.859Z,19.57
2022-09-23T08:19:08.073Z,19.77
2022-09-23T08:21:37.696Z,20.32
2022-09-23T08:24:05.734Z,20.82
2022-09-23T08:26:34.309Z,21.43
2022-09-23T08:29:02.461Z,21.46
2022-09-23T08:31:31.681Z,21.53
2022-09-23T08:34:00.420Z,21.66
2022-09-23T08:36:28.503Z,22.13
2022-09-23T08:38:57.269Z,21.89
2022-09-23T08:41:36.167Z,22.77
2022-09-23T08:44:09.165Z,22.90
2022-09-23T08:46:43.366Z,23.54
2022-09-23T08:49:17.300Z,24.34
2022-09-23T08:51:48.063Z,24.75
2022-09-23T08:54:18.887Z,24.63
2022-09-23T08:56:52.353Z,24.60
2022-09-23T08:59:28.808Z,24.47
2022-09-23T09:02:02.116Z,24.54
2022-09-23T09:04:42.987Z,24.89
2022-09-23T09:07:35.614Z,25.32
2022-09-23T09:10:11.597Z,24.95
2022-09-23T09:12:43.522Z,24.95
2022-09-23T09:15:15.319Z,24.15
2022-09-23T09:17:52.377Z,23.50
2022-09-23T09:20:24.534Z,22.67
2022-09-23T09:22:57.752Z,22.07
2022-09-23T09:25:34.533Z,21.59
2022-09-23T09:28:04.539Z,21.14
2022-09-23T09:30:36.194Z,21.03
2022-09-23T09:33:10.130Z,21.11
2022-09-23T09:35:43.206Z,21.05
2022-09-23T09:38:11.306Z,20.94
2022-09-23T09:40:46.194Z,21.08
2022-09-23T09:43:23.669Z,21.13
2022-09-23T09:46:04.982Z,20.83
2022-09-23T09:48:39.957Z,20.65
2022-09-23T09:51:20.434Z,20.77
2022-09-23T09:53:50.094Z,20.99
2022-09-23T09:56:20.707Z,21.03
2022-09-23T09:58:51.406Z,20.99
2022-09-23T10:01:24.422Z,20.97
2022-09-23T10:03:57.060Z,21.08
2022-09-23T10:06:28.509Z,21.07
2022-09-23T10:09:12.757Z,21.24
2022-09-23T10:11:41.756Z,21.23
2022-09-23T10:14:14.987Z,21.41
2022-09-23T10:16:42.880Z,21.52
2022-09-23T10:19:25.767Z,21.57
2022-09-23T10:21:59.900Z,21.40
2022-09-23T10:24:31.092Z,21.50
2022-09-23T10:27:02.978Z,21.50
2022-09-23T10:29:33.014Z,21.22
2022-09-23T10:32:30.575Z,21.10
2022-09-23T10:35:13.496Z,20.96
2022-09-23T10:37:42.753Z,20.94
2022-09-23T10:40:35.573Z,20.82
2022-09-23T10:43:41.453Z,20.75
2022-09-23T10:46:35.476Z,20.74
2022-09-23T10:49:24.619Z,20.86
2022-09-23T10:52:05.413Z,20.93
2022-09-23T10:54:43.552Z,20.82
2022-09-23T10:57:40.713Z,20.98
2022-09-23T11:00:23.193Z,21.10
2022-09-23T11:03:20.603Z,21.14
2022-09-23T11:05:57.906Z,21.18
2022-09-23T11:08:44.176Z,21.29
2022-09-23T11:11:25.329Z,21.34
2022-09-23T11:14:17.222Z,21.37
2022-09-23T11:17:06.123Z,21.43
2022-09-23T11:19:58.299Z,21.49
2022-09-23T11:22:42.300Z,21.57
2022-09-23T11:25:32.108Z,21.40
2022-09-23T11:28:34.190Z,21.46
2022-09-23T11:31:14.741Z,21.54
2022-09-23T11:33:58.522Z,21.53
2022-09-23T11:36:32.781Z,21.56
2022-09-23T11:39:03.942Z,21.49
2022-09-23T11:41:38.451Z,21.55
2022-09-23T11:44:14.769Z,21.57
2022-09-23T11:46:47.765Z,21.66
2022-09-23T11:49:20.321Z,21.59
2022-09-23T11:52:01.910Z,21.48
2022-09-23T11:54:35.959Z,21.52
2022-09-23T11:57:11.062Z,21.35
2022-09-23T11:59:46.255Z,21.27
2022-09-23T12:02:25.619Z,21.37
2022-09-23T12:05:03.075Z,21.28
2022-09-23T12:07:43.712Z,21.32
2022-09-23T12:10:12.917Z,21.33
2022-09-23T12:12:51.949Z,21.39
2022-09-23T12:15:34.659Z,21.36
2022-09-23T12:18:17.494Z,21.27
2022-09-23T12:24:50.482Z,21.25
2022-09-23T12:27:31.956Z,21.18
2022-09-23T12:30:04.200Z,21.41
2022-09-23T12:32:33.337Z,21.33
2022-09-23T12:35:02.754Z,21.39
2022-09-23T12:37:36.034Z,21.42
2022-09-23T12:40:09.860Z,21.42
2022-09-23T12:42:46.036Z,21.40
2022-09-23T12:45:37.351Z,21.40
2022-09-23T12:48:26.162Z,21.55
2022-09-23T12:50:58.406Z,21.64
2022-09-23T12:53:55.241Z,21.56
2022-09-23T12:56:27.564Z,21.50
2022-09-23T12:59:14.727Z,21.60
2022-09-23T13:01:44.618Z,21.53
2022-09-23T13:04:49.292Z,21.46
2022-09-23T13:07:20.266Z,21.42
2022-09-23T13:09:51.477Z,21.52
2022-09-23T13:12:24.759Z,21.62
2022-09-23T13:14:56.255Z,21.48
2022-09-23T13:17:32.041Z,21.59
2022-09-23T13:20:03.535Z,21.69
2022-09-23T13:23:06.017Z,21.78
2022-09-23T13:25:40.469Z,21.73
2022-09-23T13:28:22.488Z,21.60
2022-09-23T13:30:52.380Z,21.68
2022-09-23T13:33:29.714Z,21.85
2022-09-23T13:36:02.811Z,21.77
2022-09-23T13:38:32.379Z,21.66
2022-09-23T13:41:03.386Z,21.67
2022-09-23T13:43:40.293Z,21.65
2022-09-23T13:46:13.439Z,21.38
2022-09-23T13:48:45.905Z,21.43
2022-09-23T13:51:20.630Z,21.49
2022-09-23T13:53:53.387Z,21.39
2022-09-23T13:56:21.517Z,21.37
2022-09-23T13:58:49.604Z,21.39
2022-09-23T14:01:24.187Z,21.35
2022-09-23T14:03:53.444Z,21.30
2022-09-23T14:06:21.462Z,21.27
2022-09-23T14:08:51.317Z,21.16
2022-09-23T14:11:21.304Z,21.18
2022-09-23T14:13:55.210Z,21.21
2022-09-23T14:16:26.715Z,21.21
2022-09-23T14:18:58.764Z,21.18
2022-09-23T14:21:35.127Z,21.11
2022-09-23T14:24:17.237Z,21.13
2022-09-23T14:26:48.284Z,21.01
2022-09-23T14:29:18.693Z,21.00
2022-09-23T14:31:57.065Z,21.06
2022-09-23T14:34:47.258Z,21.08
2022-09-23T14:37:42.931Z,20.92
2022-09-23T14:40:15.947Z,20.84
2022-09-23T14:42:47.211Z,20.90
2022-09-23T14:45:19.357Z,20.84
2022-09-23T14:47:51.062Z,20.78
2022-09-23T14:50:40.073Z,20.73
2022-09-23T14:53:33.579Z,20.69
2022-09-23T14:56:20.984Z,20.58
2022-09-23T14:58:53.249Z,20.61
2022-09-23T15:01:45.264Z,20.56
2022-09-23T15:04:18.801Z,20.40
2022-09-23T15:06:52.290Z,20.16
2022-09-23T15:09:26.071Z,20.30
2022-09-23T15:11:58.454Z,20.33
2022-09-23T15:14:38.844Z,20.45
2022-09-23T15:17:17.814Z,20.49
2022-09-23T15:19:46.562Z,20.50
2022-09-23T15:22:16.655Z,20.52
2022-09-23T15:24:46.868Z,20.46
2022-09-23T15:27:38.772Z,20.36
2022-09-23T15:30:16.267Z,20.25
2022-09-23T15:32:44.608Z,20.27
2022-09-23T15:35:16.849Z,20.29
2022-09-23T15:37:47.715Z,20.23
2022-09-23T15:40:21.066Z,20.17
2022-09-23T15:42:51.626Z,20.17
2022-09-23T15:45:22.463Z,20.19
2022-09-23T15:47:52.321Z,20.12
2022-09-23T15:50:20.971Z,20.13
2022-09-23T15:52:50.737Z,20.06
2022-09-23T15:55:23.628Z,19.94
2022-09-23T15:57:51.638Z,19.94
2022-09-23T16:00:19.821Z,19.93
2022-09-23T16:02:49.886Z,19.88
2022-09-23T16:05:22.836Z,19.84
2022-09-23T16:07:53.389Z,19.79
2022-09-23T16:10:23.482Z,19.80
2022-09-23T16:12:54.654Z,19.74
2022-09-23T16:15:24.875Z,19.74
2022-09-23T16:17:52.899Z,19.80
2022-09-23T16:20:20.882Z,19.80
2022-09-23T16:22:57.194Z,19.72
2022-09-23T16:25:27.967Z,19.69
2022-09-23T16:27:56.365Z,19.69
2022-09-23T16:30:24.721Z,19.60
2022-09-23T16:32:52.754Z,19.52
2022-09-23T16:35:21.492Z,19.48
2022-09-23T16:37:50.296Z,19.49
2022-09-23T16:40:21.607Z,19.41
2022-09-23T16:42:52.117Z,19.41
2022-09-23T16:45:23.178Z,19.40
2022-09-23T16:47:54.437Z,19.37
2022-09-23T16:50:24.528Z,19.30
2022-09-23T16:52:55.574Z,19.27
2022-09-23T16:55:27.447Z,19.20
2022-09-23T16:57:56.178Z,19.12
2022-09-23T17:00:42.617Z,19.10
2022-09-23T17:03:31.015Z,19.05
2022-09-23T17:06:00.686Z,19.04
2022-09-23T17:08:31.202Z,19.01
2022-09-23T17:11:01.717Z,18.95
2022-09-23T17:13:31.283Z,18.90
2022-09-23T17:15:59.766Z,18.89
2022-09-23T17:18:28.163Z,18.86
2022-09-23T17:21:00.627Z,18.83
2022-09-23T17:23:29.034Z,18.80
2022-09-23T17:25:56.860Z,18.81
2022-09-23T17:28:26.680Z,18.72
2022-09-23T17:31:00.846Z,18.71
2022-09-23T17:33:30.918Z,18.69
2022-09-23T17:36:00.187Z,18.58
2022-09-23T17:38:29.614Z,18.52
2022-09-23T17:41:01.372Z,18.48
2022-09-23T17:43:31.627Z,18.45
2022-09-23T17:46:05.314Z,18.42
2022-09-23T17:48:35.242Z,18.33
2022-09-23T17:51:05.598Z,18.35
2022-09-23T17:53:36.432Z,18.36
2022-09-23T17:56:06.894Z,18.34
2022-09-23T17:58:38.112Z,18.36
2022-09-23T18:01:10.003Z,18.34
2022-09-23T18:03:38.687Z,18.30
2022-09-23T18:06:16.216Z,18.28
2022-09-23T18:08:45.862Z,18.29
2022-09-23T18:11:15.858Z,18.28
2022-09-23T18:13:49.061Z,18.26
2022-09-23T18:16:17.164Z,18.23
2022-09-23T18:18:45.111Z,18.20
2022-09-23T18:21:13.049Z,18.23
2022-09-23T18:23:41.128Z,18.13
2022-09-23T18:26:14.893Z,18.12
2022-09-23T18:28:42.999Z,18.13
2022-09-23T18:31:13.456Z,18.15
2022-09-23T18:33:41.421Z,18.11
2022-09-23T18:36:10.135Z,18.15
2022-09-23T18:38:38.077Z,18.09
2022-09-23T18:41:08.130Z,18.09
2022-09-23T18:43:40.726Z,18.10
2022-09-23T18:46:14.714Z,18.12
2022-09-23T18:49:01.202Z,18.08
2022-09-23T18:51:30.728Z,18.06
2022-09-23T18:53:59.940Z,17.95
2022-09-23T18:56:33.568Z,17.96
2022-09-23T18:59:01.907Z,17.94
2022-09-23T19:01:31.283Z,17.93
2022-09-23T19:04:02.130Z,17.86
2022-09-23T19:06:33.284Z,17.94
2022-09-23T19:09:01.248Z,17.95
2022-09-23T19:11:29.213Z,17.96
2022-09-23T19:14:00.412Z,17.98
2022-09-23T19:16:29.533Z,17.95
2022-09-23T19:19:00.391Z,17.91
2022-09-23T19:21:29.401Z,17.95
2022-09-23T19:24:00.404Z,17.95
2022-09-23T19:26:32.597Z,17.85
2022-09-23T19:29:02.221Z,17.83
2022-09-23T19:31:33.464Z,17.80
2022-09-23T19:34:06.114Z,17.76
2022-09-23T19:36:39.000Z,17.73
2022-09-23T19:39:08.912Z,17.71
2022-09-23T19:41:36.860Z,17.70
2022-09-23T19:44:07.692Z,17.72
2022-09-23T19:46:37.735Z,17.71
2022-09-23T19:49:08.738Z,17.67
2022-09-23T19:51:36.719Z,17.63
2022-09-23T19:54:07.273Z,17.64
2022-09-23T19:56:36.031Z,17.68
2022-09-23T19:59:06.851Z,17.66
2022-09-23T20:01:35.560Z,17.64
2022-09-23T20:04:06.832Z,17.62
2022-09-23T20:06:38.081Z,17.58
2022-09-23T20:09:06.987Z,17.55
2022-09-23T20:11:35.165Z,17.58
2022-09-23T20:14:05.006Z,17.55
2022-09-23T20:16:35.148Z,17.53
2022-09-23T20:19:04.574Z,17.50
2022-09-23T20:21:35.426Z,17.49
2022-09-23T20:24:06.641Z,17.45
2022-09-23T20:26:51.948Z,17.49
2022-09-23T20:29:19.905Z,17.58
2022-09-23T20:31:47.960Z,17.54
2022-09-23T20:34:15.812Z,17.49
2022-09-23T20:36:45.221Z,17.50
2022-09-23T20:39:13.112Z,17.47
2022-09-23T20:41:40.962Z,17.37
2022-09-23T20:44:12.693Z,17.40
2022-09-23T20:46:47.471Z,17.40
2022-09-23T20:49:16.338Z,17.38
2022-09-23T20:51:45.733Z,17.31
2022-09-23T20:54:13.520Z,17.28
2022-09-23T20:56:41.748Z,17.25
2022-09-23T20:59:10.584Z,17.30
2022-09-23T21:01:38.632Z,17.24
2022-09-23T21:04:08.144Z,17.20
2022-09-23T21:06:36.625Z,17.15
2022-09-23T21:09:06.717Z,17.14
2022-09-23T21:11:34.627Z,17.10
2022-09-23T21:14:02.977Z,17.14
2022-09-23T21:16:31.428Z,17.11
2022-09-23T21:18:59.932Z,17.14
2022-09-23T21:21:27.999Z,17.16
2022-09-23T21:24:07.020Z,17.21
2022-09-23T21:26:47.485Z,17.13
2022-09-23T21:29:15.360Z,17.07
2022-09-23T21:31:43.215Z,17.07
2022-09-23T21:34:12.560Z,17.13
2022-09-23T21:36:43.164Z,17.17
2022-09-23T21:39:12.761Z,17.18
2022-09-23T21:41:40.921Z,17.19
2022-09-23T21:44:10.145Z,17.16
2022-09-23T21:46:38.261Z,17.11
2022-09-23T21:49:06.425Z,17.05
2022-09-23T21:51:40.959Z,16.99
2022-09-23T21:54:13.699Z,16.95
2022-09-23T21:56:41.979Z,16.94
2022-09-23T21:59:11.489Z,16.94
2022-09-23T22:01:43.705Z,16.99
2022-09-23T22:04:16.186Z,16.97
2022-09-23T22:06:44.802Z,16.91
2022-09-23T22:09:15.118Z,16.87
2022-09-23T22:12:01.264Z,16.84
2022-09-23T22:14:30.885Z,16.81
2022-09-23T22:17:00.749Z,16.76
2022-09-23T22:19:40.265Z,16.75
2022-09-23T22:22:13.345Z,16.76
2022-09-23T22:24:41.708Z,16.71
2022-09-23T22:27:10.448Z,16.70
2022-09-23T22:29:57.385Z,16.71
2022-09-23T22:32:43.658Z,16.68
2022-09-23T22:35:13.692Z,16.68
2022-09-23T22:37:41.648Z,16.69
2022-09-23T22:40:14.210Z,16.72
2022-09-23T22:42:43.355Z,16.75
2022-09-23T22:45:13.967Z,16.74
2022-09-23T22:47:43.532Z,16.69
2022-09-23T22:50:14.015Z,16.71
2022-09-23T22:52:42.085Z,16.72
2022-09-23T22:55:10.637Z,16.75
2022-09-23T22:57:39.092Z,16.77
2022-09-23T23:00:08.357Z,16.74
2022-09-23T23:02:37.865Z,16.59
2022-09-23T23:05:06.723Z,16.52
2022-09-23T23:07:36.210Z,16.49
2022-09-23T23:10:10.354Z,16.51
2022-09-23T23:12:40.309Z,16.51
2022-09-23T23:15:11.814Z,16.52
2022-09-23T23:17:43.621Z,16.54
2022-09-23T23:20:11.785Z,16.48
2022-09-23T23:22:39.689Z,16.47
2022-09-23T23:25:08.368Z,16.42
2022-09-23T23:27:36.644Z,16.37
2022-09-23T23:30:05.080Z,16.33
2022-09-23T23:32:35.751Z,16.27
2022-09-23T23:35:05.944Z,16.28
2022-09-23T23:37:33.844Z,16.24
2022-09-23T23:40:01.812Z,16.20
2022-09-23T23:42:31.444Z,16.15
2022-09-23T23:44:59.574Z,16.19
2022-09-23T23:47:27.667Z,16.15
2022-09-23T23:49:55.645Z,16.16
2022-09-23T23:52:24.932Z,16.18
2022-09-23T23:54:52.790Z,16.17
2022-09-23T23:57:20.775Z,16.21
2022-09-23T23:59:48.642Z,16.24
